sensor_id;sensor_type;location;lat;lon;timestamp;P1;durP1;ratioP1;P2;durP2;ratioP2
19929;SDS011;10127;47.780;9.606;2023-04-07T00:02:15;8.20;;;5.70;;
19929;SDS011;10127;47.780;9.606;2023-04-07T00:04:41;8.23;;;5.97;;
19929;SDS011;10127;47.780;9.606;2023-04-07T00:07:06;8.43;;;5.57;;
19929;SDS011;10127;47.780;9.606;2023-04-07T00:09:32;8.35;;;5.85;;
19929;SDS011;10127;47.780;9.606;2023-04-07T00:11:58;10.35;;;6.18;;
19929;SDS011;10127;47.780;9.606;2023-04-07T00:14:26;7.13;;;5.57;;
19929;SDS011;10127;47.780;9.606;2023-04-07T00:16:52;10.98;;;6.53;;
19929;SDS011;10127;47.780;9.606;2023-04-07T00:19:17;9.07;;;6.00;;
19929;SDS011;10127;47.780;9.606;2023-04-07T00:21:43;8.93;;;6.15;;
19929;SDS011;10127;47.780;9.606;2023-04-07T00:24:08;12.15;;;6.20;;
19929;SDS011;10127;47.780;9.606;2023-04-07T00:26:34;8.45;;;5.57;;
19929;SDS011;10127;47.780;9.606;2023-04-07T00:28:59;10.82;;;6.50;;
19929;SDS011;10127;47.780;9.606;2023-04-07T00:31:25;9.48;;;5.45;;
19929;SDS011;10127;47.780;9.606;2023-04-07T00:33:51;11.65;;;6.25;;
19929;SDS011;10127;47.780;9.606;2023-04-07T00:36:16;10.40;;;6.65;;
19929;SDS011;10127;47.780;9.606;2023-04-07T00:38:42;10.30;;;6.20;;
19929;SDS011;10127;47.780;9.606;2023-04-07T00:41:07;9.77;;;6.55;;
19929;SDS011;10127;47.780;9.606;2023-04-07T00:43:33;7.32;;;5.68;;
19929;SDS011;10127;47.780;9.606;2023-04-07T00:45:58;10.77;;;6.07;;
19929;SDS011;10127;47.780;9.606;2023-04-07T00:48:24;7.82;;;6.10;;
19929;SDS011;10127;47.780;9.606;2023-04-07T00:50:50;8.63;;;5.68;;
19929;SDS011;10127;47.780;9.606;2023-04-07T00:53:15;6.82;;;5.47;;
19929;SDS011;10127;47.780;9.606;2023-04-07T00:55:41;8.90;;;5.38;;
19929;SDS011;10127;47.780;9.606;2023-04-07T00:58:07;8.85;;;5.80;;
19929;SDS011;10127;47.780;9.606;2023-04-07T01:00:35;8.68;;;5.68;;
19929;SDS011;10127;47.780;9.606;2023-04-07T01:03:12;9.13;;;5.20;;
19929;SDS011;10127;47.780;9.606;2023-04-07T01:05:54;7.93;;;5.40;;
19929;SDS011;10127;47.780;9.606;2023-04-07T01:08:40;7.82;;;4.68;;
19929;SDS011;10127;47.780;9.606;2023-04-07T01:11:22;7.57;;;5.25;;
19929;SDS011;10127;47.780;9.606;2023-04-07T01:13:52;9.63;;;5.78;;
19929;SDS011;10127;47.780;9.606;2023-04-07T01:16:22;7.57;;;5.72;;
19929;SDS011;10127;47.780;9.606;2023-04-07T01:18:49;9.43;;;6.78;;
19929;SDS011;10127;47.780;9.606;2023-04-07T01:21:18;11.85;;;6.07;;
19929;SDS011;10127;47.780;9.606;2023-04-07T01:24:04;8.38;;;5.95;;
19929;SDS011;10127;47.780;9.606;2023-04-07T01:26:36;14.95;;;6.45;;
19929;SDS011;10127;47.780;9.606;2023-04-07T01:32:02;11.30;;;6.40;;
19929;SDS011;10127;47.780;9.606;2023-04-07T01:34:30;12.80;;;6.22;;
19929;SDS011;10127;47.780;9.606;2023-04-07T01:36:57;10.60;;;6.05;;
19929;SDS011;10127;47.780;9.606;2023-04-07T01:39:25;8.73;;;5.57;;
19929;SDS011;10127;47.780;9.606;2023-04-07T01:41:52;9.68;;;6.40;;
19929;SDS011;10127;47.780;9.606;2023-04-07T01:44:19;9.88;;;6.57;;
19929;SDS011;10127;47.780;9.606;2023-04-07T01:46:45;11.75;;;6.85;;
19929;SDS011;10127;47.780;9.606;2023-04-07T01:49:12;7.30;;;5.90;;
19929;SDS011;10127;47.780;9.606;2023-04-07T01:51:39;11.63;;;6.18;;
19929;SDS011;10127;47.780;9.606;2023-04-07T01:54:05;8.93;;;6.05;;
19929;SDS011;10127;47.780;9.606;2023-04-07T01:56:32;7.68;;;6.40;;
19929;SDS011;10127;47.780;9.606;2023-04-07T01:58:58;10.27;;;6.50;;
19929;SDS011;10127;47.780;9.606;2023-04-07T02:01:23;9.98;;;6.65;;
19929;SDS011;10127;47.780;9.606;2023-04-07T02:04:01;8.13;;;6.28;;
19929;SDS011;10127;47.780;9.606;2023-04-07T02:06:37;8.93;;;5.68;;
19929;SDS011;10127;47.780;9.606;2023-04-07T02:09:13;8.13;;;5.40;;
19929;SDS011;10127;47.780;9.606;2023-04-07T02:11:41;7.28;;;5.80;;
19929;SDS011;10127;47.780;9.606;2023-04-07T02:14:08;9.32;;;6.60;;
19929;SDS011;10127;47.780;9.606;2023-04-07T02:16:35;8.18;;;6.25;;
19929;SDS011;10127;47.780;9.606;2023-04-07T02:19:01;9.02;;;6.28;;
19929;SDS011;10127;47.780;9.606;2023-04-07T02:21:28;10.60;;;5.90;;
19929;SDS011;10127;47.780;9.606;2023-04-07T02:23:59;14.98;;;6.07;;
19929;SDS011;10127;47.780;9.606;2023-04-07T02:26:25;8.77;;;6.15;;
19929;SDS011;10127;47.780;9.606;2023-04-07T02:28:51;6.97;;;4.88;;
19929;SDS011;10127;47.780;9.606;2023-04-07T02:31:16;10.40;;;5.72;;
19929;SDS011;10127;47.780;9.606;2023-04-07T02:33:42;7.20;;;5.30;;
19929;SDS011;10127;47.780;9.606;2023-04-07T02:36:07;8.32;;;5.60;;
19929;SDS011;10127;47.780;9.606;2023-04-07T02:38:33;9.05;;;6.15;;
19929;SDS011;10127;47.780;9.606;2023-04-07T02:40:59;7.13;;;4.55;;
19929;SDS011;10127;47.780;9.606;2023-04-07T02:43:24;10.18;;;4.97;;
19929;SDS011;10127;47.780;9.606;2023-04-07T02:45:50;8.07;;;5.03;;
19929;SDS011;10127;47.780;9.606;2023-04-07T02:48:15;6.15;;;4.78;;
19929;SDS011;10127;47.780;9.606;2023-04-07T03:11:19;10.32;;;5.43;;
19929;SDS011;10127;47.780;9.606;2023-04-07T03:13:44;9.23;;;5.20;;
19929;SDS011;10127;47.780;9.606;2023-04-07T03:16:10;8.13;;;6.03;;
19929;SDS011;10127;47.780;9.606;2023-04-07T03:18:35;8.35;;;6.10;;
19929;SDS011;10127;47.780;9.606;2023-04-07T03:21:01;8.75;;;6.63;;
19929;SDS011;10127;47.780;9.606;2023-04-07T03:23:27;9.55;;;6.78;;
19929;SDS011;10127;47.780;9.606;2023-04-07T03:25:53;11.15;;;7.10;;
19929;SDS011;10127;47.780;9.606;2023-04-07T03:28:18;10.05;;;7.20;;
19929;SDS011;10127;47.780;9.606;2023-04-07T03:30:44;10.25;;;7.38;;
19929;SDS011;10127;47.780;9.606;2023-04-07T03:33:10;12.27;;;7.35;;
19929;SDS011;10127;47.780;9.606;2023-04-07T03:35:36;13.18;;;8.25;;
19929;SDS011;10127;47.780;9.606;2023-04-07T03:38:01;10.75;;;7.50;;
19929;SDS011;10127;47.780;9.606;2023-04-07T03:40:27;11.80;;;7.80;;
19929;SDS011;10127;47.780;9.606;2023-04-07T03:42:53;12.53;;;8.20;;
19929;SDS011;10127;47.780;9.606;2023-04-07T03:45:18;11.25;;;8.25;;
19929;SDS011;10127;47.780;9.606;2023-04-07T03:47:44;11.45;;;8.07;;
19929;SDS011;10127;47.780;9.606;2023-04-07T03:50:10;11.85;;;7.75;;
19929;SDS011;10127;47.780;9.606;2023-04-07T03:52:35;12.45;;;7.65;;
19929;SDS011;10127;47.780;9.606;2023-04-07T03:55:01;12.02;;;7.47;;
19929;SDS011;10127;47.780;9.606;2023-04-07T03:57:26;10.05;;;7.40;;
19929;SDS011;10127;47.780;9.606;2023-04-07T03:59:53;12.07;;;7.65;;
19929;SDS011;10127;47.780;9.606;2023-04-07T04:02:20;12.80;;;7.78;;
19929;SDS011;10127;47.780;9.606;2023-04-07T04:04:45;10.60;;;7.47;;
19929;SDS011;10127;47.780;9.606;2023-04-07T04:07:11;9.47;;;6.93;;
19929;SDS011;10127;47.780;9.606;2023-04-07T04:09:36;10.35;;;7.65;;
19929;SDS011;10127;47.780;9.606;2023-04-07T04:12:02;11.98;;;7.55;;
19929;SDS011;10127;47.780;9.606;2023-04-07T04:14:27;9.65;;;7.13;;
19929;SDS011;10127;47.780;9.606;2023-04-07T04:16:53;10.68;;;7.78;;
19929;SDS011;10127;47.780;9.606;2023-04-07T04:19:19;11.73;;;7.72;;
19929;SDS011;10127;47.780;9.606;2023-04-07T04:21:44;12.63;;;7.35;;
19929;SDS011;10127;47.780;9.606;2023-04-07T04:24:10;9.98;;;7.75;;
19929;SDS011;10127;47.780;9.606;2023-04-07T04:26:36;12.05;;;8.15;;
19929;SDS011;10127;47.780;9.606;2023-04-07T04:29:01;13.55;;;7.65;;
19929;SDS011;10127;47.780;9.606;2023-04-07T04:31:27;13.07;;;7.38;;
19929;SDS011;10127;47.780;9.606;2023-04-07T04:33:53;11.55;;;7.65;;
19929;SDS011;10127;47.780;9.606;2023-04-07T04:36:18;10.65;;;7.53;;
19929;SDS011;10127;47.780;9.606;2023-04-07T04:38:44;14.02;;;8.23;;
19929;SDS011;10127;47.780;9.606;2023-04-07T04:41:10;13.18;;;8.10;;
19929;SDS011;10127;47.780;9.606;2023-04-07T04:43:35;10.50;;;7.32;;
19929;SDS011;10127;47.780;9.606;2023-04-07T04:46:01;9.77;;;7.50;;
19929;SDS011;10127;47.780;9.606;2023-04-07T04:48:26;11.32;;;8.05;;
19929;SDS011;10127;47.780;9.606;2023-04-07T04:50:52;10.32;;;7.70;;
19929;SDS011;10127;47.780;9.606;2023-04-07T04:53:17;11.40;;;8.13;;
19929;SDS011;10127;47.780;9.606;2023-04-07T04:55:43;11.37;;;7.77;;
19929;SDS011;10127;47.780;9.606;2023-04-07T04:58:11;14.10;;;8.23;;
19929;SDS011;10127;47.780;9.606;2023-04-07T05:00:36;13.20;;;8.10;;
19929;SDS011;10127;47.780;9.606;2023-04-07T05:03:02;9.27;;;7.23;;
19929;SDS011;10127;47.780;9.606;2023-04-07T05:05:28;10.07;;;7.10;;
19929;SDS011;10127;47.780;9.606;2023-04-07T05:07:53;12.10;;;7.57;;
19929;SDS011;10127;47.780;9.606;2023-04-07T05:10:19;9.65;;;6.75;;
19929;SDS011;10127;47.780;9.606;2023-04-07T05:12:44;12.45;;;7.18;;
19929;SDS011;10127;47.780;9.606;2023-04-07T05:15:10;12.93;;;7.90;;
19929;SDS011;10127;47.780;9.606;2023-04-07T05:17:36;11.23;;;7.63;;
19929;SDS011;10127;47.780;9.606;2023-04-07T05:20:01;11.20;;;7.82;;
19929;SDS011;10127;47.780;9.606;2023-04-07T05:22:28;12.07;;;7.63;;
19929;SDS011;10127;47.780;9.606;2023-04-07T05:24:53;10.32;;;7.38;;
19929;SDS011;10127;47.780;9.606;2023-04-07T05:27:19;11.55;;;6.90;;
19929;SDS011;10127;47.780;9.606;2023-04-07T05:29:44;11.10;;;8.07;;
19929;SDS011;10127;47.780;9.606;2023-04-07T05:32:10;10.80;;;7.93;;
19929;SDS011;10127;47.780;9.606;2023-04-07T05:34:35;10.25;;;7.35;;
19929;SDS011;10127;47.780;9.606;2023-04-07T05:37:01;9.73;;;7.07;;
19929;SDS011;10127;47.780;9.606;2023-04-07T05:39:26;10.48;;;7.60;;
19929;SDS011;10127;47.780;9.606;2023-04-07T05:41:52;10.02;;;7.10;;
19929;SDS011;10127;47.780;9.606;2023-04-07T05:44:18;10.23;;;7.38;;
19929;SDS011;10127;47.780;9.606;2023-04-07T05:46:43;13.98;;;7.53;;
19929;SDS011;10127;47.780;9.606;2023-04-07T05:49:09;10.87;;;7.60;;
19929;SDS011;10127;47.780;9.606;2023-04-07T05:51:34;11.67;;;7.53;;
19929;SDS011;10127;47.780;9.606;2023-04-07T05:54:00;9.90;;;7.65;;
19929;SDS011;10127;47.780;9.606;2023-04-07T05:56:29;12.88;;;7.78;;
19929;SDS011;10127;47.780;9.606;2023-04-07T05:58:55;12.77;;;7.30;;
19929;SDS011;10127;47.780;9.606;2023-04-07T06:01:20;7.80;;;6.38;;
19929;SDS011;10127;47.780;9.606;2023-04-07T06:03:46;9.85;;;6.50;;
19929;SDS011;10127;47.780;9.606;2023-04-07T06:06:11;9.45;;;6.22;;
19929;SDS011;10127;47.780;9.606;2023-04-07T06:08:38;13.65;;;6.30;;
19929;SDS011;10127;47.780;9.606;2023-04-07T06:11:04;9.60;;;6.38;;
19929;SDS011;10127;47.780;9.606;2023-04-07T06:13:30;10.35;;;7.03;;
19929;SDS011;10127;47.780;9.606;2023-04-07T06:15:55;12.40;;;6.70;;
19929;SDS011;10127;47.780;9.606;2023-04-07T06:18:21;7.78;;;5.70;;
19929;SDS011;10127;47.780;9.606;2023-04-07T06:20:47;8.45;;;6.47;;
19929;SDS011;10127;47.780;9.606;2023-04-07T06:23:12;10.85;;;7.57;;
19929;SDS011;10127;47.780;9.606;2023-04-07T06:25:38;8.82;;;6.75;;
19929;SDS011;10127;47.780;9.606;2023-04-07T06:28:03;10.55;;;6.80;;
19929;SDS011;10127;47.780;9.606;2023-04-07T06:30:30;7.53;;;5.80;;
19929;SDS011;10127;47.780;9.606;2023-04-07T06:32:55;11.98;;;6.75;;
19929;SDS011;10127;47.780;9.606;2023-04-07T06:35:21;8.65;;;6.00;;
19929;SDS011;10127;47.780;9.606;2023-04-07T06:37:46;8.60;;;5.70;;
19929;SDS011;10127;47.780;9.606;2023-04-07T06:40:12;9.88;;;6.32;;
19929;SDS011;10127;47.780;9.606;2023-04-07T06:42:37;9.32;;;6.60;;
19929;SDS011;10127;47.780;9.606;2023-04-07T06:45:03;8.70;;;5.80;;
19929;SDS011;10127;47.780;9.606;2023-04-07T06:47:29;7.85;;;6.20;;
19929;SDS011;10127;47.780;9.606;2023-04-07T06:49:55;8.30;;;5.65;;
19929;SDS011;10127;47.780;9.606;2023-04-07T06:52:20;8.18;;;5.82;;
19929;SDS011;10127;47.780;9.606;2023-04-07T06:54:46;7.97;;;5.63;;
19929;SDS011;10127;47.780;9.606;2023-04-07T06:57:11;7.15;;;5.75;;
19929;SDS011;10127;47.780;9.606;2023-04-07T06:59:37;8.85;;;6.28;;
19929;SDS011;10127;47.780;9.606;2023-04-07T07:02:03;8.07;;;5.22;;
19929;SDS011;10127;47.780;9.606;2023-04-07T07:04:28;9.60;;;6.00;;
19929;SDS011;10127;47.780;9.606;2023-04-07T07:06:54;11.10;;;5.85;;
19929;SDS011;10127;47.780;9.606;2023-04-07T07:09:20;7.15;;;5.15;;
19929;SDS011;10127;47.780;9.606;2023-04-07T07:11:45;7.57;;;5.93;;
19929;SDS011;10127;47.780;9.606;2023-04-07T07:14:11;10.40;;;6.22;;
19929;SDS011;10127;47.780;9.606;2023-04-07T07:16:37;7.72;;;5.47;;
19929;SDS011;10127;47.780;9.606;2023-04-07T07:19:02;6.80;;;5.50;;
19929;SDS011;10127;47.780;9.606;2023-04-07T07:21:28;6.40;;;5.13;;
19929;SDS011;10127;47.780;9.606;2023-04-07T07:23:53;6.93;;;5.18;;
19929;SDS011;10127;47.780;9.606;2023-04-07T07:26:19;10.70;;;5.07;;
19929;SDS011;10127;47.780;9.606;2023-04-07T07:28:45;6.43;;;5.15;;
19929;SDS011;10127;47.780;9.606;2023-04-07T07:31:11;6.13;;;4.43;;
19929;SDS011;10127;47.780;9.606;2023-04-07T07:33:38;6.68;;;4.78;;
19929;SDS011;10127;47.780;9.606;2023-04-07T07:36:05;6.72;;;5.13;;
19929;SDS011;10127;47.780;9.606;2023-04-07T07:38:31;7.03;;;5.25;;
19929;SDS011;10127;47.780;9.606;2023-04-07T07:40:56;9.35;;;5.65;;
19929;SDS011;10127;47.780;9.606;2023-04-07T07:43:29;10.02;;;5.03;;
19929;SDS011;10127;47.780;9.606;2023-04-07T07:45:54;6.35;;;4.90;;
19929;SDS011;10127;47.780;9.606;2023-04-07T07:48:20;7.40;;;4.55;;
19929;SDS011;10127;47.780;9.606;2023-04-07T07:50:45;6.22;;;4.97;;
19929;SDS011;10127;47.780;9.606;2023-04-07T07:53:13;6.32;;;4.82;;
19929;SDS011;10127;47.780;9.606;2023-04-07T07:55:38;12.63;;;4.80;;
19929;SDS011;10127;47.780;9.606;2023-04-07T07:58:04;7.05;;;4.65;;
19929;SDS011;10127;47.780;9.606;2023-04-07T08:00:30;5.35;;;4.57;;
19929;SDS011;10127;47.780;9.606;2023-04-07T08:02:55;6.88;;;4.90;;
19929;SDS011;10127;47.780;9.606;2023-04-07T08:05:21;8.68;;;5.63;;
19929;SDS011;10127;47.780;9.606;2023-04-07T08:07:47;6.10;;;4.72;;
19929;SDS011;10127;47.780;9.606;2023-04-07T08:10:19;5.75;;;4.60;;
19929;SDS011;10127;47.780;9.606;2023-04-07T08:12:45;7.03;;;5.22;;
19929;SDS011;10127;47.780;9.606;2023-04-07T08:15:11;8.68;;;4.97;;
19929;SDS011;10127;47.780;9.606;2023-04-07T08:17:36;8.88;;;5.53;;
19929;SDS011;10127;47.780;9.606;2023-04-07T08:20:02;7.70;;;5.20;;
19929;SDS011;10127;47.780;9.606;2023-04-07T08:22:29;6.10;;;4.43;;
19929;SDS011;10127;47.780;9.606;2023-04-07T08:24:54;6.40;;;4.53;;
19929;SDS011;10127;47.780;9.606;2023-04-07T08:27:28;5.43;;;4.22;;
19929;SDS011;10127;47.780;9.606;2023-04-07T08:29:57;6.57;;;4.30;;
19929;SDS011;10127;47.780;9.606;2023-04-07T08:32:24;6.68;;;4.60;;
19929;SDS011;10127;47.780;9.606;2023-04-07T08:34:57;5.07;;;4.28;;
19929;SDS011;10127;47.780;9.606;2023-04-07T08:37:29;7.90;;;4.32;;
19929;SDS011;10127;47.780;9.606;2023-04-07T08:39:55;5.32;;;3.90;;
19929;SDS011;10127;47.780;9.606;2023-04-07T08:42:22;6.72;;;4.15;;
19929;SDS011;10127;47.780;9.606;2023-04-07T08:44:51;8.30;;;4.40;;
19929;SDS011;10127;47.780;9.606;2023-04-07T08:47:20;5.40;;;3.92;;
19929;SDS011;10127;47.780;9.606;2023-04-07T08:49:47;5.63;;;3.78;;
19929;SDS011;10127;47.780;9.606;2023-04-07T08:52:16;4.80;;;3.40;;
19929;SDS011;10127;47.780;9.606;2023-04-07T08:54:46;5.05;;;3.53;;
19929;SDS011;10127;47.780;9.606;2023-04-07T08:57:12;4.72;;;3.17;;
19929;SDS011;10127;47.780;9.606;2023-04-07T08:59:40;6.07;;;3.53;;
19929;SDS011;10127;47.780;9.606;2023-04-07T09:02:09;5.68;;;3.72;;
19929;SDS011;10127;47.780;9.606;2023-04-07T09:04:35;5.22;;;3.60;;
19929;SDS011;10127;47.780;9.606;2023-04-07T09:07:01;7.20;;;3.50;;
19929;SDS011;10127;47.780;9.606;2023-04-07T09:09:26;8.50;;;3.75;;
19929;SDS011;10127;47.780;9.606;2023-04-07T09:11:53;6.38;;;3.70;;
19929;SDS011;10127;47.780;9.606;2023-04-07T09:14:19;4.03;;;3.50;;
19929;SDS011;10127;47.780;9.606;2023-04-07T09:16:45;5.85;;;3.83;;
19929;SDS011;10127;47.780;9.606;2023-04-07T09:19:11;5.53;;;3.30;;
19929;SDS011;10127;47.780;9.606;2023-04-07T09:21:46;4.82;;;3.55;;
19929;SDS011;10127;47.780;9.606;2023-04-07T09:24:20;6.70;;;3.58;;
19929;SDS011;10127;47.780;9.606;2023-04-07T09:26:47;5.40;;;3.58;;
19929;SDS011;10127;47.780;9.606;2023-04-07T09:29:17;5.60;;;3.45;;
19929;SDS011;10127;47.780;9.606;2023-04-07T09:31:47;4.80;;;3.22;;
19929;SDS011;10127;47.780;9.606;2023-04-07T09:34:50;7.47;;;3.25;;
19929;SDS011;10127;47.780;9.606;2023-04-07T09:37:07;5.90;;;3.33;;
19929;SDS011;10127;47.780;9.606;2023-04-07T09:39:33;9.68;;;3.58;;
19929;SDS011;10127;47.780;9.606;2023-04-07T09:42:16;4.47;;;3.22;;
19929;SDS011;10127;47.780;9.606;2023-04-07T09:44:42;5.63;;;3.33;;
19929;SDS011;10127;47.780;9.606;2023-04-07T09:47:08;3.25;;;2.90;;
19929;SDS011;10127;47.780;9.606;2023-04-07T09:49:47;3.47;;;2.70;;
19929;SDS011;10127;47.780;9.606;2023-04-07T09:52:14;5.25;;;2.95;;
19929;SDS011;10127;47.780;9.606;2023-04-07T09:54:41;4.97;;;2.78;;
19929;SDS011;10127;47.780;9.606;2023-04-07T09:57:07;4.60;;;2.95;;
19929;SDS011;10127;47.780;9.606;2023-04-07T09:59:35;7.13;;;2.33;;
19929;SDS011;10127;47.780;9.606;2023-04-07T10:02:03;7.45;;;3.30;;
19929;SDS011;10127;47.780;9.606;2023-04-07T10:04:29;6.03;;;2.40;;
19929;SDS011;10127;47.780;9.606;2023-04-07T10:06:56;3.72;;;2.13;;
19929;SDS011;10127;47.780;9.606;2023-04-07T10:09:23;5.03;;;2.40;;
19929;SDS011;10127;47.780;9.606;2023-04-07T10:11:52;2.40;;;2.20;;
19929;SDS011;10127;47.780;9.606;2023-04-07T10:14:19;4.57;;;2.33;;
19929;SDS011;10127;47.780;9.606;2023-04-07T10:16:47;5.78;;;2.47;;
19929;SDS011;10127;47.780;9.606;2023-04-07T10:19:13;5.00;;;2.25;;
19929;SDS011;10127;47.780;9.606;2023-04-07T10:21:39;4.28;;;2.83;;
19929;SDS011;10127;47.780;9.606;2023-04-07T10:24:25;4.75;;;1.92;;
19929;SDS011;10127;47.780;9.606;2023-04-07T10:26:55;4.95;;;1.80;;
19929;SDS011;10127;47.780;9.606;2023-04-07T10:29:26;6.43;;;2.00;;
19929;SDS011;10127;47.780;9.606;2023-04-07T10:31:55;4.90;;;1.90;;
19929;SDS011;10127;47.780;9.606;2023-04-07T10:37:14;3.03;;;2.10;;
19929;SDS011;10127;47.780;9.606;2023-04-07T10:39:44;6.05;;;2.10;;
19929;SDS011;10127;47.780;9.606;2023-04-07T10:45:03;3.83;;;1.70;;
19929;SDS011;10127;47.780;9.606;2023-04-07T10:47:29;6.30;;;2.05;;
19929;SDS011;10127;47.780;9.606;2023-04-07T10:52:44;5.90;;;1.95;;
19929;SDS011;10127;47.780;9.606;2023-04-07T11:00:42;5.43;;;1.80;;
19929;SDS011;10127;47.780;9.606;2023-04-07T11:03:33;5.70;;;2.20;;
19929;SDS011;10127;47.780;9.606;2023-04-07T11:08:40;3.80;;;2.10;;
19929;SDS011;10127;47.780;9.606;2023-04-07T11:11:11;5.43;;;2.75;;
19929;SDS011;10127;47.780;9.606;2023-04-07T11:13:41;6.45;;;2.42;;
19929;SDS011;10127;47.780;9.606;2023-04-07T11:16:07;5.82;;;2.70;;
19929;SDS011;10127;47.780;9.606;2023-04-07T11:18:33;11.35;;;3.38;;
19929;SDS011;10127;47.780;9.606;2023-04-07T11:21:00;4.15;;;2.08;;
19929;SDS011;10127;47.780;9.606;2023-04-07T11:23:27;5.47;;;2.40;;
19929;SDS011;10127;47.780;9.606;2023-04-07T11:26:02;3.15;;;2.38;;
19929;SDS011;10127;47.780;9.606;2023-04-07T11:28:29;6.32;;;1.92;;
19929;SDS011;10127;47.780;9.606;2023-04-07T11:30:55;6.60;;;2.58;;
19929;SDS011;10127;47.780;9.606;2023-04-07T11:33:26;6.10;;;2.55;;
19929;SDS011;10127;47.780;9.606;2023-04-07T11:38:20;6.60;;;2.13;;
19929;SDS011;10127;47.780;9.606;2023-04-07T11:40:49;3.97;;;2.60;;
19929;SDS011;10127;47.780;9.606;2023-04-07T11:43:15;5.13;;;2.28;;
19929;SDS011;10127;47.780;9.606;2023-04-07T11:45:44;4.93;;;2.40;;
19929;SDS011;10127;47.780;9.606;2023-04-07T11:48:29;2.95;;;2.00;;
19929;SDS011;10127;47.780;9.606;2023-04-07T11:50:56;3.78;;;2.03;;
19929;SDS011;10127;47.780;9.606;2023-04-07T11:53:28;4.45;;;2.28;;
19929;SDS011;10127;47.780;9.606;2023-04-07T11:58:30;4.22;;;1.85;;
19929;SDS011;10127;47.780;9.606;2023-04-07T12:00:57;3.17;;;2.00;;
19929;SDS011;10127;47.780;9.606;2023-04-07T12:03:27;7.68;;;2.00;;
19929;SDS011;10127;47.780;9.606;2023-04-07T12:05:53;3.55;;;1.75;;
19929;SDS011;10127;47.780;9.606;2023-04-07T12:08:19;3.38;;;2.00;;
19929;SDS011;10127;47.780;9.606;2023-04-07T12:10:45;9.88;;;2.20;;
19929;SDS011;10127;47.780;9.606;2023-04-07T12:13:11;3.75;;;1.73;;
19929;SDS011;10127;47.780;9.606;2023-04-07T12:15:38;3.10;;;1.77;;
19929;SDS011;10127;47.780;9.606;2023-04-07T12:18:03;3.50;;;1.67;;
19929;SDS011;10127;47.780;9.606;2023-04-07T12:20:29;3.97;;;1.85;;
19929;SDS011;10127;47.780;9.606;2023-04-07T12:22:56;3.53;;;1.75;;
19929;SDS011;10127;47.780;9.606;2023-04-07T12:25:22;4.75;;;1.88;;
19929;SDS011;10127;47.780;9.606;2023-04-07T12:27:47;3.92;;;2.25;;
19929;SDS011;10127;47.780;9.606;2023-04-07T12:30:13;3.33;;;2.05;;
19929;SDS011;10127;47.780;9.606;2023-04-07T12:32:38;5.43;;;2.00;;
19929;SDS011;10127;47.780;9.606;2023-04-07T12:35:07;2.42;;;1.60;;
19929;SDS011;10127;47.780;9.606;2023-04-07T12:37:32;3.03;;;1.92;;
19929;SDS011;10127;47.780;9.606;2023-04-07T12:39:58;4.90;;;2.08;;
19929;SDS011;10127;47.780;9.606;2023-04-07T12:42:24;4.78;;;1.60;;
19929;SDS011;10127;47.780;9.606;2023-04-07T12:44:50;4.57;;;2.00;;
19929;SDS011;10127;47.780;9.606;2023-04-07T12:47:15;3.30;;;1.88;;
19929;SDS011;10127;47.780;9.606;2023-04-07T12:49:41;3.65;;;2.10;;
19929;SDS011;10127;47.780;9.606;2023-04-07T12:52:07;3.38;;;2.00;;
19929;SDS011;10127;47.780;9.606;2023-04-07T12:54:32;6.68;;;2.08;;
19929;SDS011;10127;47.780;9.606;2023-04-07T12:56:58;4.65;;;2.25;;
19929;SDS011;10127;47.780;9.606;2023-04-07T12:59:23;3.55;;;1.65;;
19929;SDS011;10127;47.780;9.606;2023-04-07T13:01:49;4.05;;;2.15;;
19929;SDS011;10127;47.780;9.606;2023-04-07T13:04:15;3.75;;;2.15;;
19929;SDS011;10127;47.780;9.606;2023-04-07T13:06:41;4.05;;;2.22;;
19929;SDS011;10127;47.780;9.606;2023-04-07T13:09:07;5.28;;;2.42;;
19929;SDS011;10127;47.780;9.606;2023-04-07T13:11:33;3.80;;;2.05;;
19929;SDS011;10127;47.780;9.606;2023-04-07T13:13:58;8.05;;;2.30;;
19929;SDS011;10127;47.780;9.606;2023-04-07T13:16:24;4.75;;;1.90;;
19929;SDS011;10127;47.780;9.606;2023-04-07T13:18:49;3.42;;;1.52;;
19929;SDS011;10127;47.780;9.606;2023-04-07T13:21:15;3.55;;;1.80;;
19929;SDS011;10127;47.780;9.606;2023-04-07T13:23:40;3.97;;;1.80;;
19929;SDS011;10127;47.780;9.606;2023-04-07T13:26:06;2.58;;;1.60;;
19929;SDS011;10127;47.780;9.606;2023-04-07T13:28:32;4.22;;;1.70;;
19929;SDS011;10127;47.780;9.606;2023-04-07T13:30:57;3.60;;;1.75;;
19929;SDS011;10127;47.780;9.606;2023-04-07T13:33:23;2.22;;;1.85;;
19929;SDS011;10127;47.780;9.606;2023-04-07T13:35:48;2.35;;;1.33;;
19929;SDS011;10127;47.780;9.606;2023-04-07T13:38:14;3.58;;;1.50;;
19929;SDS011;10127;47.780;9.606;2023-04-07T13:40:40;3.17;;;1.52;;
19929;SDS011;10127;47.780;9.606;2023-04-07T13:43:05;2.55;;;1.60;;
19929;SDS011;10127;47.780;9.606;2023-04-07T13:45:31;6.20;;;1.73;;
19929;SDS011;10127;47.780;9.606;2023-04-07T13:47:57;3.22;;;1.55;;
19929;SDS011;10127;47.780;9.606;2023-04-07T13:50:23;2.55;;;1.60;;
19929;SDS011;10127;47.780;9.606;2023-04-07T13:52:49;4.78;;;1.80;;
19929;SDS011;10127;47.780;9.606;2023-04-07T13:55:15;2.28;;;1.33;;
19929;SDS011;10127;47.780;9.606;2023-04-07T13:57:40;2.97;;;1.60;;
19929;SDS011;10127;47.780;9.606;2023-04-07T14:00:06;2.75;;;1.27;;
19929;SDS011;10127;47.780;9.606;2023-04-07T14:02:32;4.32;;;1.55;;
19929;SDS011;10127;47.780;9.606;2023-04-07T14:04:58;4.22;;;1.48;;
19929;SDS011;10127;47.780;9.606;2023-04-07T14:07:23;3.17;;;1.23;;
19929;SDS011;10127;47.780;9.606;2023-04-07T14:09:49;4.65;;;1.50;;
19929;SDS011;10127;47.780;9.606;2023-04-07T14:12:15;1.58;;;1.10;;
19929;SDS011;10127;47.780;9.606;2023-04-07T14:14:41;2.53;;;1.10;;
19929;SDS011;10127;47.780;9.606;2023-04-07T14:17:06;1.98;;;1.13;;
19929;SDS011;10127;47.780;9.606;2023-04-07T14:19:32;4.78;;;1.27;;
19929;SDS011;10127;47.780;9.606;2023-04-07T14:21:58;1.30;;;1.02;;
19929;SDS011;10127;47.780;9.606;2023-04-07T14:24:24;3.13;;;1.25;;
19929;SDS011;10127;47.780;9.606;2023-04-07T14:26:50;1.77;;;1.10;;
19929;SDS011;10127;47.780;9.606;2023-04-07T14:29:18;2.13;;;1.20;;
19929;SDS011;10127;47.780;9.606;2023-04-07T14:31:44;4.13;;;1.80;;
19929;SDS011;10127;47.780;9.606;2023-04-07T14:34:12;4.57;;;2.50;;
19929;SDS011;10127;47.780;9.606;2023-04-07T14:36:38;4.70;;;2.15;;
19929;SDS011;10127;47.780;9.606;2023-04-07T14:39:03;5.88;;;2.55;;
19929;SDS011;10127;47.780;9.606;2023-04-07T14:41:29;7.10;;;2.25;;
19929;SDS011;10127;47.780;9.606;2023-04-07T14:43:55;3.40;;;1.90;;
19929;SDS011;10127;47.780;9.606;2023-04-07T14:46:21;2.88;;;1.70;;
19929;SDS011;10127;47.780;9.606;2023-04-07T14:48:47;3.03;;;1.65;;
19929;SDS011;10127;47.780;9.606;2023-04-07T14:51:15;4.18;;;2.22;;
19929;SDS011;10127;47.780;9.606;2023-04-07T14:53:41;5.55;;;2.40;;
19929;SDS011;10127;47.780;9.606;2023-04-07T14:56:07;5.38;;;2.15;;
19929;SDS011;10127;47.780;9.606;2023-04-07T14:58:33;3.95;;;2.30;;
19929;SDS011;10127;47.780;9.606;2023-04-07T15:01:01;5.05;;;2.22;;
19929;SDS011;10127;47.780;9.606;2023-04-07T15:03:27;3.40;;;1.80;;
19929;SDS011;10127;47.780;9.606;2023-04-07T15:05:52;3.28;;;2.35;;
19929;SDS011;10127;47.780;9.606;2023-04-07T15:08:18;4.60;;;2.58;;
19929;SDS011;10127;47.780;9.606;2023-04-07T15:10:43;2.40;;;1.98;;
19929;SDS011;10127;47.780;9.606;2023-04-07T15:13:09;5.15;;;2.53;;
19929;SDS011;10127;47.780;9.606;2023-04-07T15:15:35;3.97;;;2.60;;
19929;SDS011;10127;47.780;9.606;2023-04-07T15:18:00;5.15;;;2.80;;
19929;SDS011;10127;47.780;9.606;2023-04-07T15:20:26;4.68;;;3.03;;
19929;SDS011;10127;47.780;9.606;2023-04-07T15:22:51;3.47;;;2.58;;
19929;SDS011;10127;47.780;9.606;2023-04-07T15:25:17;5.05;;;3.35;;
19929;SDS011;10127;47.780;9.606;2023-04-07T15:27:43;5.35;;;3.53;;
19929;SDS011;10127;47.780;9.606;2023-04-07T15:30:08;6.72;;;3.78;;